Time;durP1;ratioP1;P1;durP2;ratioP2;P2;SDS_P1;SDS_P2;PMS_P1;PMS_P2;Temp;Humidity;BMP_temperature;BMP_pressure;BME280_temperature;BME280_humidity;BME280_pressure;Samples;Min_cycle;Max_cycle;Signal;HPM_P1;HPM_P2
2021/12/13 00:02:18;;;;;;;14.15;10.85;;;4.20;99.90;;;;;;6094708;23;20085;-70
2021/12/13 00:04:47;;;;;;;12.88;10.30;;;4.10;99.90;;;;;;6095605;23;20395;-74
2021/12/13 00:07:30;;;;;;;12.90;10.05;;;4.20;99.90;;;;;;6094807;23;20383;-72
2021/12/13 00:10:17;;;;;;;13.45;9.82;;;4.20;99.90;;;;;;6094965;23;20015;-68
2021/12/13 00:12:47;;;;;;;;;;;4.20;99.90;;;;;;6094909;23;20034;-68
2021/12/13 00:15:22;;;;;;;12.90;10.27;;;4.20;99.90;;;;;;6095520;23;19980;-72
2021/12/13 00:17:52;;;;;;;13.73;10.38;;;4.20;99.90;;;;;;6093788;23;20365;-69
2021/12/13 00:20:37;;;;;;;15.80;10.63;;;4.20;99.90;;;;;;6094560;23;20396;-70
2021/12/13 00:23:18;;;;;;;15.48;10.65;;;4.20;99.90;;;;;;6069826;23;20014;-70
2021/12/13 00:25:48;;;;;;;16.05;10.90;;;4.00;99.90;;;;;;6095403;23;20014;-70
2021/12/13 00:28:17;;;;;;;;;;;4.00;99.90;;;;;;6070159;23;20014;-66
2021/12/13 00:31:03;;;;;;;17.98;10.95;;;4.10;99.90;;;;;;6094750;23;19944;-67
2021/12/13 00:34:01;;;;;;;13.80;10.50;;;4.10;99.90;;;;;;6094861;23;20014;-69
2021/12/13 00:36:49;;;;;;;14.27;10.60;;;3.90;99.90;;;;;;6095089;23;20019;-70
2021/12/13 00:39:25;;;;;;;12.27;10.20;;;3.70;99.90;;;;;;6094947;23;20097;-70
2021/12/13 00:41:53;;;;;;;16.77;11.45;;;3.90;99.90;;;;;;6094736;23;20011;-71
2021/12/13 00:44:32;;;;;;;17.73;12.18;;;3.80;99.90;;;;;;6095355;23;20026;-75
2021/12/13 00:47:05;;;;;;;15.07;10.93;;;3.70;99.90;;;;;;6094519;23;20041;-70
2021/12/13 00:49:38;;;;;;;15.57;10.50;;;4.00;99.90;;;;;;6094629;23;20045;-72
2021/12/13 00:52:06;;;;;;;16.98;11.77;;;4.00;99.90;;;;;;6094650;23;20068;-68
2021/12/13 00:54:39;;;;;;;15.93;12.10;;;4.10;99.90;;;;;;6095011;23;20041;-70
2021/12/13 00:57:36;;;;;;;21.02;14.50;;;4.20;99.90;;;;;;6094670;23;20388;-70
2021/12/13 01:00:17;;;;;;;20.95;13.57;;;4.20;99.90;;;;;;6094862;23;20014;-68
2021/12/13 01:02:47;;;;;;;23.38;13.95;;;4.10;99.90;;;;;;6094721;23;20010;-70
2021/12/13 01:05:20;;;;;;;21.38;14.05;;;4.00;99.90;;;;;;6096365;23;20302;-69
2021/12/13 01:08:14;;;;;;;19.15;13.50;;;3.80;99.90;;;;;;6096359;23;20014;-73
2021/12/13 01:10:50;;;;;;;25.45;15.07;;;3.80;99.90;;;;;;6096745;23;20049;-72
2021/12/13 01:13:20;;;;;;;22.63;15.75;;;3.70;99.90;;;;;;6071493;23;20010;-72
2021/12/13 01:16:19;;;;;;;25.30;16.45;;;3.60;99.90;;;;;;6096614;23;20064;-71
2021/12/13 01:19:01;;;;;;;26.00;14.43;;;3.50;99.90;;;;;;6096506;23;20021;-71
2021/12/13 01:21:57;;;;;;;20.85;13.77;;;3.60;99.90;;;;;;6071016;23;20026;-71
2021/12/13 01:27:33;;;;;;;20.55;13.18;;;4.00;99.90;;;;;;6048589;23;20528;-69
2021/12/13 01:30:04;;;;;;;20.27;13.73;;;4.10;99.90;;;;;;6095687;23;20029;-68
2021/12/13 01:32:37;;;;;;;18.85;12.85;;;4.10;99.90;;;;;;6070105;23;20010;-70
2021/12/13 01:35:09;;;;;;;22.55;13.45;;;4.20;99.90;;;;;;6095598;23;20019;-69
2021/12/13 01:37:36;;;;;;;23.15;13.13;;;4.10;99.90;;;;;;6095281;23;20712;-69
2021/12/13 01:40:14;;;;;;;18.13;13.18;;;4.10;99.90;;;;;;6095512;23;20022;-70
2021/12/13 01:42:42;;;;;;;18.48;12.55;;;4.20;99.90;;;;;;6095073;23;20024;-69
2021/12/13 01:45:15;;;;;;;19.95;13.15;;;4.20;99.90;;;;;;6095541;23;20025;-68
2021/12/13 01:47:45;;;;;;;18.77;12.60;;;4.20;99.90;;;;;;6096419;23;20332;-69
2021/12/13 01:50:15;;;;;;;14.30;11.07;;;4.10;99.90;;;;;;6096332;23;20018;-70
2021/12/13 01:52:46;;;;;;;14.27;10.95;;;4.20;99.90;;;;;;6096423;23;20030;-73
2021/12/13 01:55:29;;;;;;;17.77;10.93;;;4.10;99.90;;;;;;6071203;23;20018;-70
2021/12/13 01:58:19;;;;;;;14.52;11.07;;;4.20;99.90;;;;;;6095870;23;20082;-70
2021/12/13 02:01:11;;;;;;;13.98;10.32;;;4.10;99.90;;;;;;6096575;23;20018;-72
2021/12/13 02:03:39;;;;;;;13.73;10.35;;;4.10;99.90;;;;;;6096570;23;20362;-75
2021/12/13 02:06:07;;;;;;;16.63;11.43;;;4.10;99.90;;;;;;6096079;23;20018;-69
2021/12/13 02:08:36;;;;;;;19.48;12.23;;;4.10;99.90;;;;;;6096500;23;20376;-68
2021/12/13 02:11:05;;;;;;;16.27;11.85;;;4.00;99.90;;;;;;6096188;23;20089;-69
2021/12/13 02:13:48;;;;;;;15.95;12.63;;;3.90;99.90;;;;;;6095972;23;20076;-68
2021/12/13 02:19:03;;;;;;;17.63;12.55;;;3.90;99.90;;;;;;6096388;23;20022;-70
2021/12/13 02:21:35;;;;;;;15.80;12.20;;;4.00;99.90;;;;;;6096271;23;20018;-69
2021/12/13 02:24:12;;;;;;;17.20;12.48;;;4.20;99.90;;;;;;6095927;23;20089;-71
2021/12/13 02:26:45;;;;;;;18.73;13.10;;;4.20;99.90;;;;;;6096162;23;20018;-69
2021/12/13 02:29:35;;;;;;;18.75;13.18;;;4.10;99.90;;;;;;6095925;23;20014;-74
2021/12/13 02:32:08;;;;;;;16.10;12.57;;;3.70;99.90;;;;;;6096346;23;20018;-70
2021/12/13 02:34:39;;;;;;;15.85;12.07;;;3.80;99.90;;;;;;6096137;23;20085;-76
2021/12/13 02:37:08;;;;;;;18.45;12.85;;;3.90;99.90;;;;;;6096248;23;20015;-74
2021/12/13 02:39:44;;;;;;;16.25;11.10;;;3.90;99.90;;;;;;6096276;23;20093;-76
2021/12/13 02:42:14;;;;;;;15.73;11.73;;;3.90;99.90;;;;;;6095742;23;20172;-70
2021/12/13 02:44:46;;;;;;;18.65;12.05;;;3.90;99.90;;;;;;6096216;23;20341;-69
2021/12/13 02:47:25;;;;;;;15.98;11.35;;;4.10;99.90;;;;;;6096005;23;20086;-70
2021/12/13 02:49:53;;;;;;;17.52;12.35;;;4.00;99.90;;;;;;6095823;23;20022;-69
2021/12/13 02:52:22;;;;;;;18.80;11.73;;;4.00;99.90;;;;;;6096363;23;20092;-70
2021/12/13 02:55:17;;;;;;;17.05;11.90;;;4.00;99.90;;;;;;6096269;23;20053;-74
2021/12/13 02:57:50;;;;;;;14.63;9.77;;;4.00;99.90;;;;;;6095755;23;20034;-72
2021/12/13 03:00:27;;;;;;;10.48;8.98;;;4.00;99.90;;;;;;6096708;23;20085;-75
2021/12/13 03:02:57;;;;;;;18.38;11.00;;;4.10;99.90;;;;;;6095564;23;20077;-69
2021/12/13 03:05:37;;;;;;;16.23;11.77;;;4.20;99.90;;;;;;6096251;23;20022;-75
2021/12/13 03:08:18;;;;;;;17.40;12.05;;;4.20;99.90;;;;;;6095948;23;20021;-74
2021/12/13 03:10:53;;;;;;;15.73;12.07;;;4.20;99.90;;;;;;6095615;23;20024;-70
2021/12/13 03:13:22;;;;;;;18.20;12.63;;;4.10;99.90;;;;;;6095405;23;20085;-72
2021/12/13 03:16:12;;;;;;;17.65;11.95;;;4.10;99.90;;;;;;6096022;23;20021;-69
2021/12/13 03:18:56;;;;;;;15.60;11.50;;;4.20;99.90;;;;;;6080787;23;20085;-68
2021/12/13 03:21:42;;;;;;;15.32;11.45;;;4.10;99.90;;;;;;6095840;23;20045;-72
2021/12/13 03:24:26;;;;;;;14.77;11.50;;;4.10;99.90;;;;;;6095130;23;20366;-71
2021/12/13 03:27:31;;;;;;;15.60;11.65;;;4.20;99.90;;;;;;6095180;23;20034;-71
2021/12/13 03:30:15;;;;;;;18.35;11.93;;;4.20;99.90;;;;;;6070524;23;20138;-71
2021/12/13 03:32:54;;;;;;;17.67;12.32;;;4.20;99.90;;;;;;6095801;23;20089;-73
2021/12/13 03:35:27;;;;;;;15.80;11.57;;;4.20;99.90;;;;;;6095538;23;20088;-69
2021/12/13 03:38:03;;;;;;;15.52;11.55;;;4.20;99.90;;;;;;6069881;23;20022;-69
2021/12/13 03:40:32;;;;;;;19.85;12.27;;;4.00;99.90;;;;;;6095328;23;20362;-72
2021/12/13 03:43:06;;;;;;;17.40;12.35;;;4.00;99.90;;;;;;6095347;23;20018;-69
2021/12/13 03:45:39;;;;;;;17.90;12.70;;;4.00;99.90;;;;;;6096555;23;20034;-73
2021/12/13 03:48:09;;;;;;;19.58;13.50;;;4.10;99.90;;;;;;6095383;23;20015;-74
2021/12/13 03:50:42;;;;;;;18.67;12.55;;;4.10;99.90;;;;;;6095747;23;20018;-75
2021/12/13 03:53:15;;;;;;;16.73;11.85;;;4.00;99.90;;;;;;6070432;23;20332;-73
2021/12/13 03:55:48;;;;;;;17.45;11.90;;;4.00;99.90;;;;;;6095234;23;20019;-69
2021/12/13 03:58:20;;;;;;;16.65;11.75;;;3.70;99.90;;;;;;6094998;23;20057;-70
2021/12/13 04:01:01;;;;;;;14.68;11.65;;;3.80;99.90;;;;;;6069745;23;20029;-70
2021/12/13 04:03:29;;;;;;;19.48;12.50;;;3.90;99.90;;;;;;6095264;23;20011;-70
2021/12/13 04:05:58;;;;;;;15.50;11.63;;;4.00;99.90;;;;;;6095527;23;20068;-70
2021/12/13 04:08:26;;;;;;;19.63;11.60;;;4.10;99.90;;;;;;6093176;23;20081;-72
2021/12/13 04:11:01;;;;;;;18.75;12.32;;;4.10;99.90;;;;;;6094735;23;20022;-71
2021/12/13 04:13:33;;;;;;;16.67;12.45;;;4.20;99.90;;;;;;6095081;23;20015;-68
2021/12/13 04:16:30;;;;;;;16.33;11.30;;;3.90;99.90;;;;;;6095146;23;20041;-69
2021/12/13 04:19:11;;;;;;;15.98;11.70;;;4.00;99.90;;;;;;6095226;23;20573;-69
2021/12/13 04:21:50;;;;;;;13.95;11.13;;;4.10;99.90;;;;;;6095405;23;20368;-70
2021/12/13 04:24:37;;;;;;;13.27;8.90;;;3.80;99.90;;;;;;6095156;23;20097;-70
2021/12/13 04:27:16;;;;;;;18.30;9.18;;;3.70;99.90;;;;;;6095377;23;20018;-69
2021/12/13 04:29:46;;;;;;;12.15;8.65;;;3.50;99.90;;;;;;6095208;23;20357;-70
2021/12/13 04:32:28;;;;;;;17.73;9.55;;;3.30;99.90;;;;;;6095160;23;20340;-71
2021/12/13 04:35:00;;;;;;;15.73;8.70;;;3.30;99.90;;;;;;6093766;23;20115;-73
2021/12/13 04:37:37;;;;;;;10.77;8.00;;;3.30;99.90;;;;;;6069887;23;20021;-70
2021/12/13 04:40:12;;;;;;;12.15;8.60;;;3.40;99.90;;;;;;6094903;23;20038;-71
2021/12/13 04:42:41;;;;;;;11.55;8.93;;;3.60;99.90;;;;;;6095063;23;20025;-71
2021/12/13 04:45:14;;;;;;;13.10;8.50;;;3.80;99.90;;;;;;6069803;23;20378;-68
2021/12/13 04:47:53;;;;;;;13.75;9.55;;;3.90;99.90;;;;;;6094916;23;20018;-69
2021/12/13 04:50:26;;;;;;;14.05;9.93;;;3.90;99.90;;;;;;6094522;23;20026;-69
2021/12/13 04:52:55;;;;;;;16.23;11.05;;;4.00;99.90;;;;;;6094819;23;20024;-69
2021/12/13 04:55:32;;;;;;;16.02;11.48;;;4.00;99.90;;;;;;6094942;23;20018;-69
2021/12/13 04:58:03;;;;;;;17.77;12.25;;;4.00;99.90;;;;;;6094809;23;20018;-70
2021/12/13 05:00:37;;;;;;;18.85;12.55;;;4.10;99.90;;;;;;6095645;23;20149;-69
2021/12/13 05:03:09;;;;;;;19.42;12.95;;;4.10;99.90;;;;;;6094873;23;20019;-69
2021/12/13 05:05:39;;;;;;;16.00;11.88;;;4.00;99.90;;;;;;6095017;23;20058;-70
2021/12/13 05:08:13;;;;;;;17.20;12.25;;;3.90;99.90;;;;;;6069019;23;20388;-74
2021/12/13 05:10:44;;;;;;;15.93;11.98;;;3.90;99.90;;;;;;6094866;23;20524;-68
2021/12/13 05:13:15;;;;;;;16.65;10.65;;;4.00;99.90;;;;;;6094956;23;20071;-71
2021/12/13 05:15:58;;;;;;;16.35;11.45;;;3.90;99.90;;;;;;6095225;23;20019;-72
2021/12/13 05:18:30;;;;;;;16.15;12.00;;;3.90;99.90;;;;;;6095089;23;20508;-74
2021/12/13 05:21:08;;;;;;;15.75;12.00;;;3.80;99.90;;;;;;6094777;23;20090;-71
2021/12/13 05:23:56;;;;;;;14.18;11.07;;;4.00;99.90;;;;;;6094598;23;20034;-67
2021/12/13 05:26:43;;;;;;;12.23;10.05;;;4.00;99.90;;;;;;6094704;23;20057;-70
2021/12/13 05:29:25;;;;;;;15.90;11.32;;;3.90;99.90;;;;;;6095111;23;20030;-67
2021/12/13 05:32:30;;;;;;;16.33;11.40;;;3.80;99.90;;;;;;6094852;23;20018;-67
2021/12/13 05:35:08;;;;;;;14.30;10.68;;;3.80;99.90;;;;;;6094727;23;20018;-72
2021/12/13 05:37:46;;;;;;;17.00;11.27;;;3.80;99.90;;;;;;6094788;23;20010;-73
2021/12/13 05:40:23;;;;;;;15.38;11.70;;;3.90;99.90;;;;;;6094965;23;20022;-71
2021/12/13 05:42:53;;;;;;;16.25;10.95;;;4.00;99.90;;;;;;6095027;23;20093;-69
2021/12/13 05:45:39;;;;;;;13.70;11.02;;;4.00;99.90;;;;;;6095580;23;20025;-70
2021/12/13 05:48:20;;;;;;;15.32;10.75;;;3.90;99.90;;;;;;6094923;23;20365;-74
2021/12/13 05:51:00;;;;;;;16.48;10.73;;;3.60;99.90;;;;;;6095797;23;20041;-71
2021/12/13 05:53:42;;;;;;;14.80;10.88;;;3.60;99.90;;;;;;6096386;23;20366;-68
2021/12/13 05:56:17;;;;;;;14.68;9.55;;;3.70;99.90;;;;;;6096549;23;20316;-73
2021/12/13 05:58:44;;;;;;;86.75;47.05;;;3.80;99.90;;;;;;6096444;23;20019;-76
2021/12/13 06:01:35;;;;;;;102.07;54.40;;;4.00;99.90;;;;;;6096668;23;20025;-72
2021/12/13 06:04:24;;;;;;;15.43;12.50;;;4.30;99.90;;;;;;6096407;23;20014;-67
2021/12/13 06:06:54;;;;;;;14.45;9.95;;;3.90;99.90;;;;;;6094913;23;20357;-72
2021/12/13 06:09:40;;;;;;;14.68;10.43;;;4.00;99.90;;;;;;6094845;23;20010;-75
2021/12/13 06:12:14;;;;;;;45.75;27.80;;;4.10;99.90;;;;;;6031139;23;20018;-71
2021/12/13 06:15:42;;;;;;;31.05;19.85;;;4.20;99.90;;;;;;5129757;27;20316;-78
2021/12/13 06:18:18;;;;;;;22.25;14.23;;;3.90;99.90;;;;;;5129970;28;20036;-77
2021/12/13 06:20:59;;;;;;;22.80;12.82;;;3.70;99.90;;;;;;5128993;28;20031;-76
2021/12/13 06:23:28;;;;;;;;;;;3.60;99.90;;;;;;5112075;28;20047;-74
2021/12/13 06:26:05;;;;;;;29.85;18.27;;;3.70;99.90;;;;;;5129308;27;19920;-78
2021/12/13 06:28:37;;;;;;;15.38;11.80;;;4.00;99.90;;;;;;5112133;28;20048;-77
2021/12/13 06:31:15;;;;;;;20.67;11.25;;;3.90;99.90;;;;;;5128814;28;20039;-77
2021/12/13 06:33:59;;;;;;;16.60;11.05;;;3.80;99.90;;;;;;5128643;28;20054;-75
2021/12/13 06:36:28;;;;;;;22.15;12.00;;;3.90;99.90;;;;;;5129802;27;20035;-78
2021/12/13 06:39:03;;;;;;;14.40;10.40;;;4.00;99.90;;;;;;5128609;28;20031;-76
2021/12/13 06:41:41;;;;;;;15.75;11.00;;;4.00;99.90;;;;;;5130038;27;20035;-76
2021/12/13 06:44:22;;;;;;;17.02;11.10;;;4.10;99.90;;;;;;5128792;27;20043;-75
2021/12/13 06:47:34;;;;;;;17.00;10.73;;;4.20;99.90;;;;;;5136521;27;20050;-76
2021/12/13 06:50:02;;;;;;;13.32;10.18;;;4.10;99.90;;;;;;5145516;27;20047;-77
2021/12/13 06:52:36;;;;;;;13.98;10.38;;;4.20;99.90;;;;;;5148876;27;20448;-76
2021/12/13 06:55:14;;;;;;;13.93;10.13;;;4.10;99.90;;;;;;5149439;27;20110;-75
2021/12/13 06:58:00;;;;;;;29.20;14.95;;;4.00;99.90;;;;;;5148995;27;20039;-77
2021/12/13 07:00:32;;;;;;;26.60;17.75;;;4.00;99.90;;;;;;5150310;27;20034;-75
2021/12/13 07:03:06;;;;;;;20.90;13.05;;;4.20;99.90;;;;;;5131584;27;20096;-77
2021/12/13 07:05:49;;;;;;;43.45;24.88;;;4.10;99.90;;;;;;5045289;27;20048;-75
2021/12/13 07:08:37;;;;;;;132.65;61.10;;;4.30;99.90;;;;;;5084911;28;20040;-77
2021/12/13 07:11:06;;;;;;;34.47;21.17;;;4.70;99.90;;;;;;5087203;28;20111;-79
2021/12/13 07:13:45;;;;;;;23.05;17.20;;;4.30;99.90;;;;;;5086689;28;20123;-78
2021/12/13 07:16:17;;;;;;;26.90;16.42;;;4.10;99.90;;;;;;5086305;28;20055;-78
2021/12/13 07:18:54;;;;;;;21.05;14.43;;;4.00;99.90;;;;;;5088140;28;20355;-75
2021/12/13 07:21:29;;;;;;;22.75;15.35;;;4.10;99.90;;;;;;5085531;28;20067;-76
2021/12/13 07:24:03;;;;;;;15.15;10.20;;;4.10;99.90;;;;;;5084776;28;20128;-76
2021/12/13 07:26:53;;;;;;;12.80;9.23;;;4.00;99.90;;;;;;5073443;28;20063;-76
2021/12/13 07:29:25;;;;;;;13.70;9.50;;;4.20;99.90;;;;;;5072809;28;20032;-76
2021/12/13 07:32:14;;;;;;;12.77;8.80;;;4.20;99.90;;;;;;5071600;28;20052;-77
2021/12/13 07:35:09;;;;;;;11.18;8.27;;;4.20;99.90;;;;;;5055046;28;20126;-78
2021/12/13 07:37:55;;;;;;;13.77;8.32;;;4.10;99.90;;;;;;5073141;28;20060;-78
2021/12/13 07:40:31;;;;;;;13.93;9.48;;;3.90;99.90;;;;;;5073659;28;20043;-75
2021/12/13 07:43:17;;;;;;;14.75;9.40;;;4.00;99.90;;;;;;5072922;28;20033;-78
2021/12/13 07:46:00;;;;;;;13.05;9.25;;;3.90;99.90;;;;;;5057244;28;20046;-77
2021/12/13 07:48:32;;;;;;;17.85;10.07;;;4.10;99.90;;;;;;5056176;28;20039;-75
2021/12/13 07:51:05;;;;;;;12.82;9.27;;;4.10;99.90;;;;;;5053139;28;20497;-78
2021/12/13 07:53:41;;;;;;;11.75;8.52;;;4.10;99.90;;;;;;5052617;28;20043;-77
2021/12/13 07:56:10;;;;;;;13.70;9.77;;;4.20;99.90;;;;;;5050617;28;20037;-76
2021/12/13 07:58:46;;;;;;;12.80;10.07;;;4.10;99.90;;;;;;5052555;28;20048;-78
2021/12/13 08:01:25;;;;;;;19.25;8.68;;;4.30;99.90;;;;;;5068113;28;20087;-77
2021/12/13 08:03:57;;;;;;;20.10;9.35;;;4.10;99.90;;;;;;5048412;28;20116;-78
2021/12/13 08:06:28;;;;;;;9.57;7.55;;;4.20;99.90;;;;;;5047815;28;20037;-76
2021/12/13 08:08:57;;;;;;;;;;;4.10;99.90;;;;;;5052372;28;20061;-80
2021/12/13 08:11:54;;;;;;;11.27;7.25;;;4.20;99.90;;;;;;5053627;28;19917;-78
2021/12/13 08:14:38;;;;;;;10.45;6.15;;;4.30;99.90;;;;;;5051083;28;20069;-79
2021/12/13 08:17:31;;;;;;;11.10;6.05;;;4.30;99.90;;;;;;5049537;28;20353;-78
2021/12/13 08:20:09;;;;;;;9.52;5.80;;;4.20;99.90;;;;;;5048603;28;20045;-78
2021/12/13 08:22:45;;;;;;;16.30;6.75;;;4.00;99.90;;;;;;5051932;28;20056;-78
2021/12/13 08:25:20;;;;;;;11.77;7.15;;;4.20;99.90;;;;;;5043051;28;20037;-78
2021/12/13 08:28:01;;;;;;;10.60;7.68;;;4.20;99.90;;;;;;5049551;28;20039;-76
2021/12/13 08:30:51;;;;;;;12.80;8.50;;;4.40;99.90;;;;;;5049926;28;20396;-77
2021/12/13 08:33:24;;;;;;;13.02;9.07;;;4.40;99.90;;;;;;5051344;28;20056;-76
2021/12/13 08:36:09;;;;;;;14.35;9.98;;;4.40;99.90;;;;;;5052973;28;20095;-78
2021/12/13 08:38:50;;;;;;;13.68;10.25;;;4.50;99.90;;;;;;5047175;28;20439;-77
2021/12/13 08:41:17;;;;;;;15.82;11.00;;;4.50;99.90;;;;;;5052081;28;20126;-76
2021/12/13 08:44:14;;;;;;;15.57;10.95;;;4.40;99.90;;;;;;5052772;28;20022;-77
2021/12/13 08:46:41;;;;;;;15.43;11.20;;;4.50;99.90;;;;;;5053387;28;20052;-77
2021/12/13 08:49:20;;;;;;;15.65;11.20;;;4.50;99.90;;;;;;5050888;28;20199;-76
2021/12/13 08:52:10;;;;;;;14.25;9.82;;;4.50;99.90;;;;;;5049877;28;20037;-78
2021/12/13 08:54:58;;;;;;;16.92;10.27;;;4.10;99.90;;;;;;5029090;28;20059;-75
2021/12/13 08:57:34;;;;;;;12.73;9.13;;;4.00;99.90;;;;;;5049089;28;20040;-77
2021/12/13 09:00:32;;;;;;;12.57;9.85;;;3.90;99.90;;;;;;5050440;28;20420;-76
2021/12/13 09:03:22;;;;;;;14.18;9.95;;;3.90;99.90;;;;;;5021835;28;20038;-76
2021/12/13 09:05:58;;;;;;;12.15;9.02;;;3.90;99.90;;;;;;5049505;28;20053;-75
2021/12/13 09:08:48;;;;;;;12.77;8.25;;;4.10;99.90;;;;;;5047319;28;20036;-75
2021/12/13 09:11:18;;;;;;;9.90;7.25;;;4.00;99.90;;;;;;5050392;28;20037;-75
2021/12/13 09:14:02;;;;;;;9.23;7.28;;;4.00;99.90;;;;;;5047087;28;20582;-74
2021/12/13 09:16:45;;;;;;;10.35;6.55;;;4.10;99.90;;;;;;5042748;28;20053;-77
2021/12/13 09:19:18;;;;;;;8.95;6.43;;;4.10;99.90;;;;;;5049823;28;20025;-76
2021/12/13 09:21:54;;;;;;;8.73;5.78;;;4.20;99.90;;;;;;5049591;28;20036;-75
2021/12/13 09:24:36;;;;;;;7.78;5.90;;;4.20;99.90;;;;;;5033001;28;20431;-75
2021/12/13 09:27:32;;;;;;;9.85;5.75;;;4.20;99.90;;;;;;5048310;28;20056;-76
2021/12/13 09:30:19;;;;;;;6.70;5.60;;;4.30;99.90;;;;;;5045335;28;20041;-78
2021/12/13 09:32:52;;;;;;;8.85;6.03;;;4.30;99.90;;;;;;5049532;28;20126;-78
2021/12/13 09:35:32;;;;;;;8.68;6.07;;;4.50;99.90;;;;;;5030617;28;20065;-78
2021/12/13 09:38:31;;;;;;;10.30;6.97;;;4.70;99.90;;;;;;5031391;28;20111;-77
2021/12/13 09:41:04;;;;;;;8.23;6.68;;;4.60;99.90;;;;;;5032060;28;20422;-79
2021/12/13 09:43:46;;;;;;;6.72;5.80;;;4.70;99.90;;;;;;5035859;28;20066;-80
2021/12/13 09:46:19;;;;;;;9.20;6.45;;;4.50;99.90;;;;;;5034490;28;20048;-75
2021/12/13 09:48:53;;;;;;;6.55;5.10;;;4.60;99.90;;;;;;5084529;28;20043;-74
2021/12/13 09:51:35;;;;;;;6.10;5.40;;;4.50;99.90;;;;;;5070731;28;20072;-74
2021/12/13 09:54:13;;;;;;;8.88;6.43;;;4.60;99.90;;;;;;5070450;28;20118;-74
2021/12/13 09:56:49;;;;;;;5.97;5.10;;;4.70;99.90;;;;;;5071558;28;20400;-76
2021/12/13 09:59:23;;;;;;;5.72;5.00;;;4.60;99.90;;;;;;5070835;28;20052;-75
2021/12/13 10:01:53;;;;;;;6.55;4.97;;;4.50;99.90;;;;;;5072029;28;20033;-76
2021/12/13 10:04:28;;;;;;;6.57;5.53;;;4.60;99.90;;;;;;5070437;28;20045;-78
2021/12/13 10:07:07;;;;;;;5.60;5.00;;;4.50;99.90;;;;;;5087339;28;20583;-75
2021/12/13 10:09:44;;;;;;;10.38;5.93;;;4.50;99.90;;;;;;5071790;28;20044;-80
2021/12/13 10:12:31;;;;;;;7.70;6.15;;;4.70;99.90;;;;;;5070526;28;20064;-77
2021/12/13 10:15:10;;;;;;;8.02;5.65;;;4.60;99.90;;;;;;5070189;28;20131;-79
2021/12/13 10:17:41;;;;;;;7.90;6.53;;;4.80;99.90;;;;;;5053933;28;20038;-76
2021/12/13 10:20:19;;;;;;;10.48;7.30;;;5.00;99.90;;;;;;5071646;28;20047;-77
2021/12/13 10:22:48;;;;;;;7.75;6.70;;;5.20;99.90;;;;;;5053140;28;20136;-77
2021/12/13 10:25:23;;;;;;;9.13;6.00;;;5.00;99.90;;;;;;5070271;28;20043;-79
2021/12/13 10:27:52;;;;;;;8.35;5.82;;;4.90;99.90;;;;;;5070142;28;20045;-73
2021/12/13 10:30:35;;;;;;;9.55;6.13;;;5.10;99.90;;;;;;5070057;28;20047;-74
2021/12/13 10:33:05;;;;;;;7.57;5.78;;;4.90;99.90;;;;;;5069727;28;20135;-75
2021/12/13 10:35:36;;;;;;;9.93;5.72;;;4.90;99.90;;;;;;5062193;28;20037;-76
2021/12/13 10:38:17;;;;;;;10.18;6.10;;;5.00;99.90;;;;;;5034191;28;20045;-78
2021/12/13 10:40:51;;;;;;;9.85;6.60;;;5.00;99.90;;;;;;5050273;28;20037;-75
2021/12/13 10:43:27;;;;;;;10.05;6.47;;;5.10;99.90;;;;;;5033204;28;20427;-75
2021/12/13 10:45:58;;;;;;;9.15;6.05;;;4.90;99.90;;;;;;5050473;28;20035;-77
2021/12/13 10:48:30;;;;;;;7.80;5.13;;;4.90;99.90;;;;;;5063352;28;20387;-76
2021/12/13 10:51:05;;;;;;;9.30;6.28;;;4.90;99.90;;;;;;5069556;28;20073;-78
2021/12/13 10:53:34;;;;;;;12.15;6.13;;;5.00;99.90;;;;;;5069843;28;20064;-76
2021/12/13 10:56:13;;;;;;;7.60;5.68;;;5.20;99.90;;;;;;5070066;28;20383;-75
2021/12/13 10:58:45;;;;;;;12.05;6.13;;;5.00;99.90;;;;;;5053426;28;20040;-77
2021/12/13 11:01:19;;;;;;;8.98;6.88;;;5.00;99.90;;;;;;5072941;28;20036;-76
2021/12/13 11:03:50;;;;;;;8.15;6.22;;;5.30;99.90;;;;;;5073896;28;20102;-77
2021/12/13 11:06:19;;;;;;;10.55;6.70;;;5.00;99.90;;;;;;5074639;28;20403;-76
2021/12/13 11:08:48;;;;;;;12.43;7.10;;;5.20;99.90;;;;;;5074497;28;20036;-75
2021/12/13 11:11:45;;;;;;;7.03;6.13;;;5.10;99.90;;;;;;5073523;28;20099;-75
2021/12/13 11:14:17;;;;;;;9.13;6.00;;;5.20;99.90;;;;;;5072747;28;20106;-76
2021/12/13 11:16:49;;;;;;;9.27;6.22;;;5.20;99.90;;;;;;5056773;28;20135;-77
2021/12/13 11:19:22;;;;;;;12.70;6.05;;;5.50;99.90;;;;;;5074780;28;20490;-74
2021/12/13 11:21:55;;;;;;;9.18;7.28;;;5.20;99.90;;;;;;5064028;28;20047;-76
2021/12/13 11:24:24;;;;;;;12.40;7.57;;;5.40;99.90;;;;;;5054060;28;20380;-75
2021/12/13 11:26:57;;;;;;;9.00;7.25;;;5.40;99.90;;;;;;5054664;28;20037;-76
2021/12/13 11:29:28;;;;;;;11.60;6.88;;;5.50;99.90;;;;;;5053898;28;20047;-75
2021/12/13 11:32:05;;;;;;;9.88;6.68;;;5.30;99.90;;;;;;5053203;28;20040;-74
2021/12/13 11:34:51;;;;;;;7.93;6.60;;;5.50;99.90;;;;;;5036709;28;20127;-76
2021/12/13 11:37:56;;;;;;;6.13;5.40;;;5.10;99.90;;;;;;5049871;28;20493;-74
2021/12/13 11:40:53;;;;;;;12.45;6.70;;;5.10;99.90;;;;;;5046416;28;20400;-76
2021/12/13 11:43:52;;;;;;;7.22;6.20;;;5.40;99.90;;;;;;5033981;28;20092;-76
2021/12/13 11:46:27;;;;;;;11.50;6.80;;;5.30;99.90;;;;;;5005557;28;20049;-75
2021/12/13 11:49:16;;;;;;;11.18;6.75;;;5.40;99.90;;;;;;5062371;28;20426;-74
2021/12/13 11:52:06;;;;;;;11.18;6.50;;;5.60;99.90;;;;;;5073829;28;20045;-75
2021/12/13 11:55:07;;;;;;;5.72;5.13;;;5.80;99.90;;;;;;5073458;28;20036;-76
2021/12/13 11:57:53;;;;;;;;;;;5.30;99.90;;;;;;5073011;28;20086;-79
2021/12/13 12:00:39;;;;;;;8.13;6.45;;;5.20;99.90;;;;;;5067913;28;19917;-76
2021/12/13 12:03:44;;;;;;;10.32;7.05;;;5.20;99.90;;;;;;5032562;28;20477;-76
2021/12/13 12:06:49;;;;;;;8.98;7.65;;;5.50;99.90;;;;;;5033021;28;20087;-76
2021/12/13 12:09:42;;;;;;;8.82;6.80;;;5.50;99.90;;;;;;5030311;28;20038;-75
2021/12/13 12:12:32;;;;;;;10.77;7.03;;;5.30;99.90;;;;;;5040511;28;20460;-76
2021/12/13 12:15:01;;;;;;;9.45;7.95;;;5.30;99.90;;;;;;5029971;28;20055;-76
2021/12/13 12:17:31;;;;;;;11.25;8.60;;;5.40;99.90;;;;;;5029445;28;20579;-75
2021/12/13 12:19:59;;;;;;;11.10;8.37;;;5.60;99.90;;;;;;5014496;28;20037;-75
2021/12/13 12:22:51;;;;;;;14.73;9.48;;;5.70;99.90;;;;;;5031295;28;20348;-76
2021/12/13 12:25:22;;;;;;;14.15;8.75;;;5.70;99.90;;;;;;5031501;28;20480;-76
2021/12/13 12:27:51;;;;;;;;;;;6.00;99.90;;;;;;5033093;28;20045;-76
2021/12/13 12:30:23;;;;;;;14.27;9.57;;;6.40;99.90;;;;;;5031820;28;19966;-76
2021/12/13 12:32:54;;;;;;;13.35;10.25;;;6.70;99.90;;;;;;5033208;28;20045;-77
2021/12/13 12:35:30;;;;;;;12.20;9.50;;;6.70;99.90;;;;;;5032829;28;20037;-75
2021/12/13 12:38:17;;;;;;;12.63;10.18;;;6.60;99.90;;;;;;5032941;28;20041;-75
2021/12/13 12:41:06;;;;;;;16.33;10.27;;;6.30;99.90;;;;;;5033221;28;20113;-76
2021/12/13 12:43:40;;;;;;;14.35;8.40;;;5.90;99.90;;;;;;5048631;28;20162;-76
2021/12/13 12:46:13;;;;;;;13.20;8.07;;;5.70;99.90;;;;;;5032090;28;20065;-74
2021/12/13 12:48:50;;;;;;;10.95;7.38;;;5.50;99.90;;;;;;5055124;28;20036;-76
2021/12/13 12:51:26;;;;;;;10.52;7.00;;;5.40;99.90;;;;;;5087989;28;20052;-75
2021/12/13 12:54:15;;;;;;;9.55;6.60;;;5.40;99.90;;;;;;5071669;28;20395;-76
2021/12/13 12:56:57;;;;;;;11.55;7.07;;;5.30;99.90;;;;;;5070821;28;20140;-77
2021/12/13 12:59:43;;;;;;;8.00;6.75;;;5.40;99.90;;;;;;5072911;28;20037;-77
2021/12/13 13:02:14;;;;;;;10.65;7.75;;;5.40;99.90;;;;;;5072422;28;20059;-76
2021/12/13 13:04:50;;;;;;;9.95;8.00;;;5.70;99.90;;;;;;5071176;28;20063;-77
2021/12/13 13:07:20;;;;;;;12.20;9.35;;;5.70;99.90;;;;;;5071159;28;20448;-77
2021/12/13 13:09:51;;;;;;;11.90;8.73;;;5.70;99.90;;;;;;5072750;28;20038;-77
2021/12/13 13:12:25;;;;;;;11.23;6.10;;;5.70;99.90;;;;;;5071465;28;20571;-78
2021/12/13 13:14:57;;;;;;;11.35;7.20;;;5.20;99.90;;;;;;5054296;28;20068;-77
2021/12/13 13:17:34;;;;;;;14.15;7.70;;;5.00;99.90;;;;;;5087593;28;20443;-77
2021/12/13 13:20:14;;;;;;;10.68;7.53;;;4.90;99.90;;;;;;5071060;28;20523;-76
2021/12/13 13:22:44;;;;;;;;;;;5.10;99.90;;;;;;5071926;28;20506;-77
2021/12/13 13:25:38;;;;;;;9.77;6.47;;;5.20;99.90;;;;;;5085375;28;19964;-77
2021/12/13 13:28:23;;;;;;;10.55;6.85;;;5.30;99.90;;;;;;5070811;28;20107;-77
2021/12/13 13:30:58;;;;;;;12.38;7.20;;;5.30;99.90;;;;;;5070958;28;20039;-74
2021/12/13 13:33:36;;;;;;;10.50;7.05;;;5.40;99.90;;;;;;5070568;28;20071;-76
2021/12/13 13:36:06;;;;;;;12.48;8.07;;;5.10;99.90;;;;;;5087535;28;20032;-78
2021/12/13 13:38:33;;;;;;;11.30;7.32;;;5.40;99.90;;;;;;5070985;28;20040;-76
2021/12/13 13:41:02;;;;;;;9.32;7.70;;;5.30;99.90;;;;;;5070674;28;20078;-78
2021/12/13 13:43:31;;;;;;;10.00;7.50;;;5.20;99.90;;;;;;5054283;28;20538;-78
2021/12/13 13:45:59;;;;;;;9.60;6.55;;;5.20;99.90;;;;;;5070993;28;20070;-77
2021/12/13 13:48:33;;;;;;;10.43;6.47;;;5.10;99.90;;;;;;5063072;28;20106;-78